Time;durP1;ratioP1;P1;durP2;ratioP2;P2;SDS_P1;SDS_P2;PMS_P1;PMS_P2;Temp;Humidity;BMP_temperature;BMP_pressure;BME280_temperature;BME280_humidity;BME280_pressure;Samples;Min_cycle;Max_cycle;Signal;HPM_P1;HPM_P2
2023/12/06 06:01:06;;;;;;;26.90;13.90;;;;;;;-2.86;100.00;100826.22;107866;1281;22401;-49
2023/12/06 06:03:34;;;;;;;27.70;13.90;;;;;;;-2.86;100.00;100827.92;109569;1268;22514;-44
2023/12/06 06:06:07;;;;;;;28.20;14.20;;;;;;;-2.85;100.00;100825.42;108200;1270;22493;-49
2023/12/06 06:08:35;;;;;;;25.90;14.70;;;;;;;-2.83;100.00;100824.86;108873;1270;22515;-43
2023/12/06 06:11:02;;;;;;;30.40;15.70;;;;;;;-2.85;100.00;100827.15;109341;1281;23292;-49
2023/12/06 06:13:31;;;;;;;30.80;14.90;;;;;;;-2.87;100.00;100824.64;109829;1271;22403;-45
2023/12/06 06:16:02;;;;;;;24.40;14.40;;;;;;;-2.84;100.00;100822.92;109770;1271;22197;-44
2023/12/06 06:18:36;;;;;;;28.60;14.50;;;;;;;-2.79;100.00;100820.71;108936;1275;22588;-43
2023/12/06 06:21:08;;;;;;;25.10;15.20;;;;;;;-2.74;100.00;100824.25;109005;1276;22962;-49
2023/12/06 06:23:36;;;;;;;28.60;16.60;;;;;;;-2.67;100.00;100822.26;109524;1271;22412;-49
2023/12/06 06:26:03;;;;;;;29.50;14.60;;;;;;;-2.61;100.00;100820.41;109504;1275;22636;-43
2023/12/06 06:28:30;;;;;;;25.10;14.70;;;;;;;-2.57;100.00;100821.66;109509;1265;22390;-44
2023/12/06 06:31:01;;;;;;;35.50;16.90;;;;;;;-2.53;100.00;100822.27;109053;1264;22425;-50
2023/12/06 06:33:33;;;;;;;29.30;16.50;;;;;;;-2.49;100.00;100820.96;109068;1275;22498;-50
2023/12/06 06:40:00;;;;;;;28.30;16.60;;;;;;;-2.35;100.00;100821.60;109313;1274;22432;-49
2023/12/06 06:49:45;;;;;;;29.10;15.70;;;;;;;-2.09;100.00;100820.11;109145;1274;22207;-49
2023/12/06 06:52:23;;;;;;;40.20;20.10;;;;;;;-2.02;99.95;100818.64;109536;1274;22978;-43
2023/12/06 06:54:56;;;;;;;32.20;16.40;;;;;;;-1.94;99.96;100815.50;108762;1264;22759;-44
2023/12/06 06:57:35;;;;;;;27.50;14.60;;;;;;;-1.85;100.00;100819.65;109355;1276;22360;-51
2023/12/06 07:00:16;;;;;;;33.40;16.50;;;;;;;-1.73;99.90;100822.39;109375;1273;22420;-44
2023/12/06 07:02:57;;;;;;;25.30;13.80;;;;;;;-1.63;99.81;100824.67;109581;1275;23244;-42
2023/12/06 07:05:24;;;;;;;25.70;15.10;;;;;;;-1.54;99.23;100825.83;109631;1276;22858;-43
2023/12/06 07:07:52;;;;;;;24.60;14.00;;;;;;;-1.50;98.85;100828.14;109577;1278;22497;-44
2023/12/06 07:10:23;;;;;;;29.80;15.00;;;;;;;-1.46;98.25;100823.75;109230;1275;22480;-44
2023/12/06 07:13:05;;;;;;;27.10;15.90;;;;;;;-1.43;97.59;100822.38;109061;1278;22859;-50
2023/12/06 07:15:38;;;;;;;22.70;13.20;;;;;;;-1.39;97.57;100822.75;109266;1272;22958;-44
2023/12/06 07:18:34;;;;;;;31.90;15.60;;;;;;;-1.36;96.87;100817.62;108439;1274;23302;-49
2023/12/06 07:21:19;;;;;;;31.10;15.70;;;;;;;-1.33;96.76;100816.41;108927;1280;23090;-48
2023/12/06 07:24:22;;;;;;;35.10;16.60;;;;;;;-1.32;96.55;100808.23;109409;1275;22425;-45
2023/12/06 07:27:17;;;;;;;32.10;16.90;;;;;;;-1.32;96.27;100808.45;109047;1275;22397;-50
2023/12/06 07:29:47;;;;;;;35.60;18.80;;;;;;;-1.28;96.38;100811.76;109393;1283;24818;-43
2023/12/06 07:32:39;;;;;;;29.00;16.20;;;;;;;-1.23;96.32;100806.69;108798;1276;23832;-48
2023/12/06 07:35:54;;;;;;;30.70;16.80;;;;;;;-1.17;95.75;100801.71;109477;1275;23108;-49
2023/12/06 07:38:46;;;;;;;27.20;15.70;;;;;;;-1.15;95.83;100804.95;109017;1277;25416;-42
2023/12/06 07:42:36;;;;;;;25.40;15.10;;;;;;;-1.04;95.69;100803.13;109389;1276;22345;-42
2023/12/06 07:45:32;;;;;;;33.70;16.70;;;;;;;-0.97;95.49;100806.42;108318;1275;22663;-44
2023/12/06 07:48:12;;;;;;;29.00;16.90;;;;;;;-0.95;95.24;100807.52;108527;1275;22778;-49
2023/12/06 07:50:50;;;;;;;34.20;18.30;;;;;;;-0.89;95.12;100810.30;108518;1279;22610;-43
2023/12/06 07:53:19;;;;;;;32.10;18.40;;;;;;;-0.82;94.90;100809.45;107766;1266;22809;-44
2023/12/06 07:55:47;;;;;;;33.40;17.30;;;;;;;-0.76;94.73;100811.52;109350;1276;22331;-48
2023/12/06 07:58:17;;;;;;;36.20;19.50;;;;;;;-0.71;94.28;100807.98;109339;1278;22943;-49
2023/12/06 08:00:53;;;;;;;36.10;19.00;;;;;;;-0.72;94.02;100806.23;108782;1274;22490;-48
2023/12/06 08:03:31;;;;;;;33.70;19.40;;;;;;;-0.73;93.93;100805.48;109252;1268;22519;-49
2023/12/06 08:06:02;;;;;;;42.80;20.00;;;;;;;-0.74;93.97;100809.17;108140;1278;22555;-43
2023/12/06 08:08:30;;;;;;;33.20;18.80;;;;;;;-0.76;93.50;100814.04;108496;1275;22424;-48
2023/12/06 08:10:57;;;;;;;40.30;21.40;;;;;;;-0.80;93.44;100813.31;108594;1271;22436;-49
2023/12/06 08:13:38;;;;;;;33.80;19.30;;;;;;;-0.81;93.59;100814.63;109565;1271;23315;-43
2023/12/06 08:16:23;;;;;;;35.80;19.00;;;;;;;-0.78;93.58;100814.45;109327;1275;22429;-43
2023/12/06 08:18:52;;;;;;;33.80;18.90;;;;;;;-0.81;93.47;100819.27;108978;1275;22443;-43
2023/12/06 08:21:23;;;;;;;32.80;18.40;;;;;;;-0.85;93.39;100821.63;108350;1276;22409;-49
2023/12/06 08:24:02;;;;;;;29.40;16.30;;;;;;;-0.86;93.29;100822.65;108339;1276;22695;-44
2023/12/06 08:26:35;;;;;;;33.40;19.10;;;;;;;-0.84;93.28;100825.48;108959;1275;22444;-43
2023/12/06 08:29:08;;;;;;;29.10;17.20;;;;;;;-0.81;92.97;100820.32;108341;1280;22398;-43
2023/12/06 08:31:39;;;;;;;33.90;18.30;;;;;;;-0.83;92.36;100822.77;109125;1275;22404;-48
2023/12/06 08:34:07;;;;;;;33.50;18.40;;;;;;;-0.86;91.69;100823.45;108830;1274;22573;-48
2023/12/06 08:36:44;;;;;;;36.90;19.40;;;;;;;-0.92;91.48;100816.13;108885;1281;23027;-49
2023/12/06 08:39:12;;;;;;;34.70;18.00;;;;;;;-0.94;91.60;100811.20;109649;1275;22300;-42
2023/12/06 08:41:39;;;;;;;40.40;20.10;;;;;;;-0.95;91.36;100809.23;109553;1275;22372;-48
2023/12/06 08:44:07;;;;;;;36.40;18.60;;;;;;;-0.95;91.90;100806.02;109609;1262;22404;-49
2023/12/06 08:46:34;;;;;;;30.90;17.40;;;;;;;-0.88;91.91;100809.13;109032;1280;22889;-49
2023/12/06 08:49:04;;;;;;;32.90;18.10;;;;;;;-0.81;91.76;100810.02;108720;1273;22602;-44
2023/12/06 08:51:39;;;;;;;37.10;17.70;;;;;;;-0.76;91.53;100810.59;108966;1275;22491;-42
2023/12/06 08:54:06;;;;;;;32.40;17.40;;;;;;;-0.74;91.40;100810.41;109591;1274;22491;-49
2023/12/06 08:56:34;;;;;;;32.70;17.70;;;;;;;-0.71;90.91;100810.20;109230;1271;22416;-49
2023/12/06 08:59:03;;;;;;;32.70;16.80;;;;;;;-0.67;90.77;100811.64;108321;1274;22424;-42
2023/12/06 09:01:30;;;;;;;30.40;17.80;;;;;;;-0.65;90.59;100814.64;109377;1269;22448;-48
2023/12/06 09:04:00;;;;;;;33.00;18.90;;;;;;;-0.66;90.52;100815.11;109290;1275;22323;-48
2023/12/06 09:06:31;;;;;;;36.50;17.70;;;;;;;-0.66;90.28;100808.95;108959;1275;22584;-49
2023/12/06 09:09:05;;;;;;;37.90;16.80;;;;;;;-0.67;90.02;100811.11;108694;1275;22821;-43
2023/12/06 09:11:34;;;;;;;32.20;15.70;;;;;;;-0.70;89.70;100812.66;108662;1276;22736;-45
2023/12/06 09:14:06;;;;;;;29.70;15.50;;;;;;;-0.70;89.54;100810.59;108157;1275;22689;-48
2023/12/06 09:16:52;;;;;;;31.50;16.90;;;;;;;-0.72;89.23;100808.96;108608;1281;22428;-49
2023/12/06 09:19:44;;;;;;;24.30;15.00;;;;;;;-0.73;89.09;100800.70;108070;1283;22575;-53
2023/12/06 09:22:22;;;;;;;23.60;14.20;;;;;;;-0.68;89.11;100800.48;108138;1280;22349;-44
2023/12/06 09:24:57;;;;;;;29.50;15.10;;;;;;;-0.68;88.34;100798.23;108441;1277;23628;-43
2023/12/06 09:27:25;;;;;;;26.70;15.70;;;;;;;-0.68;88.39;100796.67;108817;1266;22419;-42
2023/12/06 09:30:03;;;;;;;23.60;14.00;;;;;;;-0.62;88.60;100798.54;108185;1279;23304;-48
2023/12/06 09:32:32;;;;;;;22.60;13.50;;;;;;;-0.56;88.55;100794.73;108952;1274;23736;-49
2023/12/06 09:35:08;;;;;;;37.20;16.60;;;;;;;-0.57;87.94;100792.98;108981;1283;22289;-44
2023/12/06 09:37:46;;;;;;;33.20;15.10;;;;;;;-0.60;87.88;100792.48;108439;1274;22690;-50
2023/12/06 09:40:38;;;;;;;26.20;14.10;;;;;;;-0.59;87.69;100790.11;108421;1276;22639;-48
2023/12/06 09:43:12;;;;;;;23.10;12.80;;;;;;;-0.60;87.03;100787.52;109153;1266;22559;-44
2023/12/06 09:45:42;;;;;;;27.90;14.90;;;;;;;-0.59;87.35;100782.05;108484;1278;22596;-49
2023/12/06 09:48:12;;;;;;;31.10;14.70;;;;;;;-0.60;87.26;100781.86;109685;1268;22304;-41
2023/12/06 09:51:15;;;;;;;30.90;15.40;;;;;;;-0.59;87.27;100785.52;108894;1281;22632;-49
2023/12/06 09:54:02;;;;;;;29.60;15.20;;;;;;;-0.62;87.10;100787.06;108539;1279;22767;-49
2023/12/06 09:56:33;;;;;;;27.10;15.00;;;;;;;-0.64;86.77;100787.12;109186;1282;22331;-42
2023/12/06 09:59:00;;;;;;;36.70;15.10;;;;;;;-0.65;86.91;100786.05;108788;1274;24203;-43
2023/12/06 10:01:28;;;;;;;25.00;14.20;;;;;;;-0.67;86.87;100782.32;108918;1265;22375;-41
2023/12/06 10:04:03;;;;;;;32.80;15.80;;;;;;;-0.71;86.49;100781.08;109521;1277;22399;-41
2023/12/06 10:06:30;;;;;;;30.50;15.00;;;;;;;-0.71;86.54;100776.80;109705;1281;23626;-47
2023/12/06 10:08:58;;;;;;;28.70;15.00;;;;;;;-0.72;86.76;100779.00;109647;1275;23046;-48
2023/12/06 10:11:25;;;;;;;24.50;14.50;;;;;;;-0.68;87.16;100777.48;109348;1276;22226;-48
2023/12/06 10:13:53;;;;;;;24.30;13.00;;;;;;;-0.61;87.22;100779.08;108948;1281;23487;-50
2023/12/06 10:16:22;;;;;;;27.20;14.70;;;;;;;-0.56;86.99;100772.98;109334;1281;369969;-44
2023/12/06 10:18:57;;;;;;;27.50;13.70;;;;;;;-0.53;87.20;100772.45;108833;1281;22560;-43
2023/12/06 10:21:33;;;;;;;25.80;14.00;;;;;;;-0.54;86.63;100773.56;108310;1269;22521;-50
2023/12/06 10:24:09;;;;;;;22.40;13.20;;;;;;;-0.55;86.35;100767.35;108477;1276;22669;-43
2023/12/06 10:26:39;;;;;;;21.70;12.00;;;;;;;-0.51;86.24;100769.65;109035;1280;23190;-49
2023/12/06 10:29:12;;;;;;;24.60;11.60;;;;;;;-0.49;85.71;100762.00;108346;1275;22631;-42
2023/12/06 10:31:46;;;;;;;19.70;12.80;;;;;;;-0.51;85.77;100763.98;108723;1281;22622;-48
2023/12/06 10:34:23;;;;;;;24.90;13.10;;;;;;;-0.52;85.72;100767.31;108695;1278;23071;-49
2023/12/06 10:37:00;;;;;;;28.90;14.50;;;;;;;-0.54;85.26;100759.36;109353;1280;23304;-49
2023/12/06 10:39:29;;;;;;;28.40;13.20;;;;;;;-0.53;85.52;100758.38;108612;1266;26351;-50
2023/12/06 10:42:13;;;;;;;27.20;14.60;;;;;;;-0.47;85.43;100756.78;108114;1279;23276;-48
2023/12/06 10:44:47;;;;;;;31.40;14.20;;;;;;;-0.45;85.14;100751.28;108289;1275;22959;-42
2023/12/06 10:47:14;;;;;;;26.90;13.80;;;;;;;-0.42;85.54;100747.45;109612;1279;22813;-48
2023/12/06 10:49:42;;;;;;;23.10;13.00;;;;;;;-0.40;85.14;100739.52;108966;1275;23573;-48
2023/12/06 10:52:15;;;;;;;26.30;13.60;;;;;;;-0.39;85.01;100734.80;108917;1276;23339;-43
2023/12/06 10:54:52;;;;;;;29.90;13.30;;;;;;;-0.40;84.87;100735.89;108916;1278;22923;-49
2023/12/06 10:57:20;;;;;;;21.80;11.70;;;;;;;-0.38;84.83;100731.92;109022;1278;22622;-49
2023/12/06 10:59:49;;;;;;;23.50;12.40;;;;;;;-0.27;85.15;100726.95;109005;1277;22387;-44
2023/12/06 11:02:41;;;;;;;18.90;10.70;;;;;;;-0.19;84.47;100716.71;109420;1276;22516;-42
2023/12/06 11:05:41;;;;;;;22.30;12.50;;;;;;;-0.20;83.71;100714.98;109340;1281;23645;-49
2023/12/06 11:09:29;;;;;;;23.90;13.40;;;;;;;-0.27;83.45;100718.40;109595;1281;22378;-48
2023/12/06 11:21:53;;;;;;;25.70;13.50;;;;;;;-0.26;83.54;100698.23;109803;1275;22933;-49
2023/12/06 11:26:04;;;;;;;25.70;13.40;;;;;;;-0.20;83.41;100698.67;109402;1276;22401;-43
2023/12/06 11:29:45;;;;;;;29.30;13.40;;;;;;;-0.16;83.42;100694.92;109451;1275;22551;-44
2023/12/06 11:32:53;;;;;;;27.30;13.20;;;;;;;-0.04;83.25;100693.85;109764;1275;22382;-44
2023/12/06 11:35:20;;;;;;;24.10;12.30;;;;;;;0.09;83.22;100687.90;109813;1272;22460;-44
2023/12/06 11:37:54;;;;;;;28.10;14.00;;;;;;;0.16;82.71;100684.67;109649;1265;22442;-44
2023/12/06 11:40:52;;;;;;;27.30;12.90;;;;;;;0.24;82.42;100687.27;109524;1282;22309;-42
2023/12/06 11:47:42;;;;;;;29.20;14.30;;;;;;;0.39;81.47;100689.16;108642;1281;22559;-49
2023/12/06 11:50:34;;;;;;;25.00;14.10;;;;;;;0.36;81.38;100690.43;109730;1265;22366;-49
2023/12/06 12:04:25;;;;;;;20.60;13.20;;;;;;;0.95;81.32;100680.60;109716;1281;22997;-49
2023/12/06 12:07:01;;;;;;;23.60;11.40;;;;;;;1.09;80.57;100680.52;109822;1282;22263;-49
2023/12/06 12:09:31;;;;;;;21.80;13.10;;;;;;;1.18;80.18;100678.35;108815;1273;22620;-45
2023/12/06 12:11:58;;;;;;;24.70;13.30;;;;;;;1.23;79.69;100680.29;108824;1282;22654;-45
2023/12/06 12:14:33;;;;;;;24.10;12.60;;;;;;;1.27;79.77;100679.45;109176;1282;23029;-42
2023/12/06 12:17:01;;;;;;;21.90;13.20;;;;;;;1.41;79.52;100676.60;109869;1282;22172;-43
2023/12/06 12:19:28;;;;;;;21.00;12.60;;;;;;;1.51;78.91;100676.33;109852;1259;22171;-49
2023/12/06 12:22:03;;;;;;;24.60;13.90;;;;;;;1.48;78.22;100675.67;109882;1276;22536;31
2023/12/06 12:24:57;;;;;;;20.30;13.00;;;;;;;1.34;78.15;100681.09;108734;1281;22231;-43
2023/12/06 12:28:29;;;;;;;39.20;14.00;;;;;;;1.18;78.32;100686.43;109173;1276;22359;-49
2023/12/06 12:32:19;;;;;;;28.80;14.30;;;;;;;1.02;78.43;100689.86;109831;1274;22988;-43
2023/12/06 12:35:10;;;;;;;21.20;13.20;;;;;;;0.92;78.33;100688.20;109759;1281;22305;-42
2023/12/06 12:37:37;;;;;;;24.50;11.70;;;;;;;0.86;78.58;100687.77;109738;1272;23014;-42
2023/12/06 12:40:07;;;;;;;28.40;13.30;;;;;;;0.77;78.80;100689.73;109890;1281;22293;-42
2023/12/06 12:42:39;;;;;;;27.30;13.20;;;;;;;0.69;79.22;100688.19;109905;1281;22751;-49
2023/12/06 12:45:14;;;;;;;27.10;13.90;;;;;;;0.64;79.27;100690.33;109840;1275;22378;-44
2023/12/06 12:47:42;;;;;;;23.10;13.20;;;;;;;0.59;79.57;100688.39;109697;1281;23335;-48
2023/12/06 12:50:09;;;;;;;24.90;12.80;;;;;;;0.57;79.61;100689.15;109354;1281;22840;-49
2023/12/06 12:52:39;;;;;;;19.80;12.80;;;;;;;0.58;80.03;100690.39;109740;1281;23448;-49
2023/12/06 12:55:10;;;;;;;25.00;12.80;;;;;;;0.58;79.89;100690.40;109739;1279;22461;-49
2023/12/06 12:57:41;;;;;;;23.80;12.00;;;;;;;0.56;80.25;100689.64;109829;1278;22859;-50
2023/12/06 13:00:21;;;;;;;21.20;13.20;;;;;;;0.52;80.23;100694.27;109611;1280;22760;-43
2023/12/06 13:02:54;;;;;;;31.60;13.60;;;;;;;0.47;80.73;100695.23;109802;1274;22291;-42
2023/12/06 13:05:22;;;;;;;32.50;13.20;;;;;;;0.38;80.22;100694.61;109633;1275;22355;-43
2023/12/06 13:07:54;;;;;;;27.50;13.30;;;;;;;0.32;80.70;100693.63;109706;1278;22298;-49
2023/12/06 13:10:22;;;;;;;24.80;13.50;;;;;;;0.28;80.65;100701.19;109803;1280;22413;-48
2023/12/06 13:12:49;;;;;;;29.70;14.00;;;;;;;0.26;80.84;100704.20;109810;1281;23096;-48
2023/12/06 13:15:16;;;;;;;25.20;13.40;;;;;;;0.23;80.86;100703.35;109874;1281;22957;-44
2023/12/06 13:17:43;;;;;;;27.90;13.20;;;;;;;0.18;81.06;100697.65;109899;1281;22224;-42
2023/12/06 13:20:10;;;;;;;30.80;14.00;;;;;;;0.14;81.04;100702.91;109949;1280;23190;-42
2023/12/06 13:22:37;;;;;;;24.90;14.00;;;;;;;0.09;80.91;100706.45;109943;1281;22259;-49
2023/12/06 13:25:05;;;;;;;22.80;12.20;;;;;;;0.05;80.89;100704.56;110003;1281;23167;-49
2023/12/06 13:27:32;;;;;;;22.90;13.00;;;;;;;0.00;80.94;100704.31;109824;1281;22324;-43
2023/12/06 13:29:59;;;;;;;26.90;11.60;;;;;;;-0.05;80.97;100701.82;109981;1281;23111;-42
2023/12/06 13:32:26;;;;;;;22.00;11.70;;;;;;;-0.10;81.01;100701.75;109973;1281;22365;-48
2023/12/06 13:34:53;;;;;;;18.30;11.80;;;;;;;-0.15;81.15;100703.58;109529;1281;22527;-42
2023/12/06 13:37:20;;;;;;;25.10;13.40;;;;;;;-0.20;81.49;100705.52;107774;1281;22505;-50
2023/12/06 13:39:47;;;;;;;26.10;13.20;;;;;;;-0.27;81.51;100703.66;107792;1280;22627;-50
2023/12/06 13:42:14;;;;;;;32.30;16.60;;;;;;;-0.33;82.07;100710.77;108787;1281;22715;-49
2023/12/06 13:44:42;;;;;;;29.00;14.80;;;;;;;-0.37;82.39;100713.76;107545;1281;23501;-42
2023/12/06 13:47:10;;;;;;;31.30;14.00;;;;;;;-0.43;82.90;100723.07;108357;1269;22971;-42
2023/12/06 13:49:37;;;;;;;26.00;15.50;;;;;;;-0.49;82.95;100723.30;109480;1280;25528;-51
2023/12/06 13:52:04;;;;;;;28.10;15.00;;;;;;;-0.51;83.35;100723.02;108715;1280;24328;-49
2023/12/06 13:54:34;;;;;;;32.50;15.60;;;;;;;-0.54;83.25;100721.85;107016;1277;22585;-43
2023/12/06 13:57:01;;;;;;;29.10;14.70;;;;;;;-0.57;83.63;100725.28;107085;1271;26540;-43
2023/12/06 13:59:31;;;;;;;28.10;15.20;;;;;;;-0.62;83.77;100727.27;110005;1281;22207;-42
2023/12/06 14:01:58;;;;;;;31.40;14.00;;;;;;;-0.65;84.11;100724.70;108225;1281;22357;-43
2023/12/06 14:04:25;;;;;;;24.60;13.40;;;;;;;-0.70;84.17;100723.08;107352;1272;22544;-49
2023/12/06 14:06:53;;;;;;;22.10;12.30;;;;;;;-0.74;84.32;100724.58;107554;1280;22314;-50
2023/12/06 14:09:20;;;;;;;30.10;14.00;;;;;;;-0.78;84.42;100728.10;107661;1281;22532;-43
